createdAt,value
2023-05-19T00:05:59.338Z,3.03
2023-05-19T00:11:02.790Z,2.90
2023-05-19T00:16:06.499Z,3.33
2023-05-19T00:21:08.801Z,3.30
2023-05-19T00:26:11.266Z,2.88
2023-05-19T00:31:13.683Z,2.63
2023-05-19T00:36:16.102Z,3.05
2023-05-19T00:41:18.709Z,3.22
2023-05-19T00:46:21.148Z,2.80
2023-05-19T00:51:26.685Z,3.13
2023-05-19T00:56:29.231Z,3.22
2023-05-19T01:01:32.625Z,3.17
2023-05-19T01:06:35.197Z,2.92
2023-05-19T01:11:37.465Z,3.17
2023-05-19T01:17:09.231Z,3.53
2023-05-19T01:22:29.598Z,3.58
2023-05-19T01:28:07.243Z,3.85
2023-05-19T01:33:14.559Z,3.83
2023-05-19T01:38:19.364Z,3.58
2023-05-19T01:43:24.674Z,3.78
2023-05-19T01:48:28.103Z,3.63
2023-05-19T01:53:30.374Z,3.90
2023-05-19T01:58:44.366Z,3.90
2023-05-19T02:04:20.623Z,3.78
2023-05-19T02:09:50.715Z,3.47
2023-05-19T02:15:16.941Z,3.75
2023-05-19T02:20:22.554Z,3.67
2023-05-19T02:25:25.008Z,3.20
2023-05-19T02:30:27.577Z,3.58
2023-05-19T02:35:29.922Z,3.65
2023-05-19T02:40:32.371Z,2.47
2023-05-19T02:45:34.732Z,2.88
2023-05-19T02:50:37.233Z,2.92
2023-05-19T02:55:39.661Z,2.90
2023-05-19T03:00:41.905Z,3.55
2023-05-19T03:05:44.416Z,3.53
2023-05-19T03:10:47.405Z,2.80
2023-05-19T03:15:51.489Z,3.75
2023-05-19T03:20:54.457Z,2.92
2023-05-19T03:25:56.932Z,3.20
2023-05-19T03:30:59.262Z,3.58
2023-05-19T03:36:01.692Z,3.83
2023-05-19T03:41:04.212Z,2.90
2023-05-19T03:46:07.086Z,3.05
2023-05-19T03:51:09.540Z,3.50
2023-05-19T03:56:15.209Z,4.00
2023-05-19T04:01:17.930Z,3.45
2023-05-19T04:06:20.535Z,3.97
2023-05-19T04:11:22.911Z,3.22
2023-05-19T04:16:25.421Z,3.38
2023-05-19T04:21:28.064Z,3.28
2023-05-19T04:26:31.435Z,3.53
2023-05-19T04:31:34.870Z,2.95
2023-05-19T04:36:38.325Z,3.20
2023-05-19T04:41:40.992Z,3.22
2023-05-19T04:46:45.627Z,4.13
2023-05-19T04:51:51.837Z,4.25
2023-05-19T04:56:55.072Z,3.88
2023-05-19T05:01:57.794Z,4.57
2023-05-19T05:07:00.296Z,4.20
2023-05-19T05:12:03.726Z,3.05
2023-05-19T05:17:06.602Z,3.20
2023-05-19T05:22:09.200Z,3.45
2023-05-19T05:27:11.541Z,3.30
2023-05-19T05:32:13.898Z,2.92
2023-05-19T05:37:16.351Z,3.83
2023-05-19T05:42:20.741Z,2.88
2023-05-19T05:47:23.329Z,3.15
2023-05-19T05:52:31.101Z,3.33
2023-05-19T05:57:35.742Z,2.92
2023-05-19T06:02:38.425Z,2.60
2023-05-19T06:07:41.575Z,2.15
2023-05-19T06:12:43.901Z,2.65
2023-05-19T06:17:46.336Z,2.30
2023-05-19T06:22:48.666Z,2.20
2023-05-19T06:27:51.197Z,2.30
2023-05-19T06:32:53.756Z,2.17
2023-05-19T06:37:58.952Z,2.00
2023-05-19T06:43:01.366Z,2.03
2023-05-19T06:48:04.328Z,2.35
2023-05-19T06:53:06.700Z,2.47
2023-05-19T06:58:09.075Z,2.13
2023-05-19T07:03:11.485Z,1.92
2023-05-19T07:08:13.996Z,1.67
2023-05-19T07:13:16.336Z,2.08
2023-05-19T07:18:18.991Z,1.60
2023-05-19T07:23:21.493Z,2.22
2023-05-19T07:28:23.813Z,2.05
2023-05-19T07:33:27.393Z,1.60
2023-05-19T07:38:31.906Z,1.55
2023-05-19T07:43:34.640Z,1.65
2023-05-19T07:48:37.563Z,1.35
2023-05-19T07:53:40.186Z,1.90
2023-05-19T07:58:42.405Z,1.60
2023-05-19T08:03:44.844Z,1.83
2023-05-19T08:08:47.946Z,2.10
2023-05-19T08:13:50.258Z,1.38
2023-05-19T08:18:52.777Z,1.40
2023-05-19T08:23:55.186Z,1.40
2023-05-19T08:28:57.502Z,1.80
2023-05-19T08:33:59.895Z,1.63
2023-05-19T08:39:02.426Z,1.50
2023-05-19T08:44:05.750Z,1.55
2023-05-19T08:49:14.412Z,1.50
2023-05-19T08:54:18.507Z,1.30
2023-05-19T08:59:22.620Z,1.35
2023-05-19T09:04:30.970Z,1.48
2023-05-19T09:09:33.649Z,1.40
2023-05-19T09:14:36.785Z,2.50
2023-05-19T09:19:45.175Z,1.48
2023-05-19T09:24:48.539Z,1.67
2023-05-19T09:29:51.411Z,1.38
2023-05-19T09:34:57.495Z,1.20
2023-05-19T09:40:00.406Z,1.48
2023-05-19T09:45:04.022Z,1.23
2023-05-19T09:50:11.205Z,1.58
2023-05-19T09:55:14.348Z,1.25
2023-05-19T10:00:20.048Z,1.80
2023-05-19T10:05:23.133Z,1.25
2023-05-19T10:10:26.010Z,1.50
2023-05-19T10:15:28.851Z,1.27
2023-05-19T10:20:35.465Z,1.65
2023-05-19T10:25:39.318Z,1.67
2023-05-19T10:30:51.385Z,1.52
2023-05-19T10:36:21.668Z,1.63
2023-05-19T10:41:48.120Z,1.70
2023-05-19T10:46:50.540Z,1.33
2023-05-19T10:51:57.281Z,1.98
2023-05-19T10:56:59.672Z,1.60
2023-05-19T11:02:09.397Z,1.67
2023-05-19T11:07:16.048Z,1.30
2023-05-19T11:12:25.387Z,1.35
2023-05-19T11:17:29.610Z,1.77
2023-05-19T11:22:36.444Z,1.65
2023-05-19T11:27:40.842Z,1.60
2023-05-19T11:32:44.700Z,1.60
2023-05-19T11:37:49.613Z,1.45
2023-05-19T11:42:52.063Z,1.70
2023-05-19T11:48:02.356Z,1.67
2023-05-19T11:53:05.766Z,1.48
2023-05-19T11:58:08.684Z,1.27
2023-05-19T12:03:11.235Z,1.50
2023-05-19T12:08:13.929Z,1.73
2023-05-19T12:13:16.656Z,1.60
2023-05-19T12:18:20.199Z,1.60
2023-05-19T12:23:23.374Z,1.77
2023-05-19T12:28:26.219Z,1.60
2023-05-19T12:33:28.573Z,1.80
2023-05-19T12:38:30.935Z,1.50
2023-05-19T12:43:33.918Z,1.70
2023-05-19T12:48:36.590Z,1.73
2023-05-19T12:53:39.144Z,2.13
2023-05-19T12:58:44.517Z,2.20
2023-05-19T13:03:47.159Z,2.10
2023-05-19T13:08:49.888Z,2.33
2023-05-19T13:13:52.267Z,2.80
2023-05-19T13:18:54.931Z,2.40
2023-05-19T13:23:57.703Z,2.30
2023-05-19T13:29:00.052Z,2.35
2023-05-19T13:34:03.155Z,2.65
2023-05-19T13:39:05.412Z,2.75
2023-05-19T13:44:07.869Z,2.50
2023-05-19T13:49:10.244Z,3.47
2023-05-19T13:54:12.550Z,2.22
2023-05-19T13:59:15.229Z,2.53
2023-05-19T14:04:19.918Z,2.33
2023-05-19T14:09:22.289Z,2.53
2023-05-19T14:14:25.337Z,2.80
2023-05-19T14:19:30.556Z,2.20
2023-05-19T14:24:33.071Z,2.30
2023-05-19T14:29:35.849Z,2.70
2023-05-19T14:34:38.389Z,2.28
2023-05-19T14:39:40.701Z,2.38
2023-05-19T14:44:42.933Z,2.15
2023-05-19T14:49:45.606Z,2.40
2023-05-19T14:54:48.059Z,2.20
2023-05-19T14:59:50.473Z,2.17
2023-05-19T15:04:52.820Z,2.85
2023-05-19T15:09:55.686Z,2.65
2023-05-19T15:14:58.016Z,2.05
2023-05-19T15:20:00.323Z,2.55
2023-05-19T15:25:02.632Z,2.17
2023-05-19T15:30:06.281Z,3.35
2023-05-19T15:35:09.161Z,2.85
2023-05-19T15:40:12.301Z,2.60
2023-05-19T15:45:14.748Z,2.50
2023-05-19T15:50:17.065Z,2.40
2023-05-19T15:55:19.540Z,2.55
2023-05-19T16:00:22.142Z,2.45
2023-05-19T16:05:24.477Z,2.50
2023-05-19T16:10:27.234Z,2.30
2023-05-19T16:15:30.064Z,2.33
2023-05-19T16:20:32.614Z,2.50
2023-05-19T16:25:35.030Z,3.08
2023-05-19T16:30:37.343Z,3.45
2023-05-19T16:35:40.061Z,3.80
2023-05-19T16:40:42.406Z,4.20
2023-05-19T16:45:44.643Z,3.78
2023-05-19T16:50:49.519Z,3.90
2023-05-19T16:55:51.902Z,4.85
2023-05-19T17:00:54.306Z,4.30
2023-05-19T17:05:56.666Z,5.10
2023-05-19T17:10:59.071Z,4.90
2023-05-19T17:16:01.953Z,4.75
2023-05-19T17:21:05.844Z,4.30
2023-05-19T17:26:08.320Z,4.03
2023-05-19T17:31:12.628Z,4.32
2023-05-19T17:36:15.191Z,5.03
2023-05-19T17:41:17.603Z,4.53
2023-05-19T17:46:20.020Z,5.10
2023-05-19T17:51:22.572Z,5.03
2023-05-19T17:56:25.965Z,4.50
2023-05-19T18:01:28.567Z,4.88
2023-05-19T18:06:32.378Z,4.53
2023-05-19T18:11:34.781Z,5.25
2023-05-19T18:16:37.254Z,4.50
2023-05-19T18:21:39.615Z,5.20
2023-05-19T18:26:42.441Z,5.40
2023-05-19T18:31:44.841Z,5.90
2023-05-19T18:36:47.251Z,4.97
2023-05-19T18:41:50.217Z,5.40
2023-05-19T18:46:52.496Z,5.20
2023-05-19T18:51:54.952Z,6.60
2023-05-19T18:56:57.318Z,6.45
2023-05-19T19:01:59.502Z,6.05
2023-05-19T19:07:01.933Z,5.50
2023-05-19T19:12:04.409Z,6.95
2023-05-19T19:17:06.819Z,8.45
2023-05-19T19:22:09.304Z,7.13
2023-05-19T19:27:12.126Z,7.57
2023-05-19T19:32:14.936Z,7.45
2023-05-19T19:37:17.320Z,6.78
2023-05-19T19:42:22.374Z,7.75
2023-05-19T19:47:24.870Z,7.28
2023-05-19T19:52:27.438Z,5.25
2023-05-19T19:57:32.044Z,6.43
2023-05-19T20:02:37.162Z,6.38
2023-05-19T20:07:42.656Z,8.20
2023-05-19T20:12:45.506Z,9.68
2023-05-19T20:17:47.842Z,12.05
2023-05-19T20:22:50.438Z,11.20
2023-05-19T20:27:52.770Z,8.85
2023-05-19T20:32:55.118Z,7.38
2023-05-19T20:37:57.628Z,10.77
2023-05-19T20:43:00.289Z,11.52
2023-05-19T20:48:04.341Z,10.23
2023-05-19T20:53:07.849Z,10.52
2023-05-19T20:58:10.393Z,10.48
2023-05-19T21:03:12.711Z,9.32
2023-05-19T21:08:15.321Z,9.50
2023-05-19T21:13:21.483Z,8.32
2023-05-19T21:18:24.230Z,9.02
2023-05-19T21:23:27.537Z,8.80
2023-05-19T21:28:30.627Z,8.05
2023-05-19T21:33:33.409Z,7.50
2023-05-19T21:38:35.804Z,7.22
2023-05-19T21:43:38.159Z,8.70
2023-05-19T21:48:40.659Z,7.90
2023-05-19T21:53:43.047Z,8.43
2023-05-19T21:58:45.621Z,7.68
2023-05-19T22:03:48.370Z,6.95
2023-05-19T22:08:50.826Z,7.25
2023-05-19T22:13:55.230Z,7.15
2023-05-19T22:18:58.593Z,6.95
2023-05-19T22:24:01.161Z,6.60
2023-05-19T22:29:03.891Z,6.78
2023-05-19T22:34:09.309Z,8.23
2023-05-19T22:39:12.912Z,6.97
2023-05-19T22:44:16.625Z,7.53
2023-05-19T22:49:25.701Z,6.40
2023-05-19T22:54:28.109Z,6.57
2023-05-19T22:59:30.553Z,6.30
2023-05-19T23:04:34.025Z,6.80
2023-05-19T23:09:36.670Z,6.72
2023-05-19T23:14:39.097Z,7.00
2023-05-19T23:19:50.414Z,7.40
2023-05-19T23:24:52.919Z,7.28
2023-05-19T23:29:55.345Z,7.53
2023-05-19T23:34:57.678Z,7.28
2023-05-19T23:40:00.122Z,7.35
2023-05-19T23:45:02.692Z,7.22
2023-05-19T23:50:05.292Z,7.25
2023-05-19T23:55:08.412Z,7.40
